sensor_id;sensor_type;location;lat;lon;timestamp;P1;durP1;ratioP1;P2;durP2;ratioP2
76935;SDS011;65881;52.438;16.744;2023-04-24T00:01:49;36.05;;;26.10;;
76935;SDS011;65881;52.438;16.744;2023-04-24T00:04:15;41.15;;;29.13;;
76935;SDS011;65881;52.438;16.744;2023-04-24T00:06:42;33.90;;;24.65;;
76935;SDS011;65881;52.438;16.744;2023-04-24T00:09:11;35.47;;;26.65;;
76935;SDS011;65881;52.438;16.744;2023-04-24T00:11:36;37.67;;;26.40;;
76935;SDS011;65881;52.438;16.744;2023-04-24T00:14:02;40.15;;;27.67;;
76935;SDS011;65881;52.438;16.744;2023-04-24T00:16:38;35.33;;;28.02;;
76935;SDS011;65881;52.438;16.744;2023-04-24T00:19:03;40.72;;;29.98;;
76935;SDS011;65881;52.438;16.744;2023-04-24T00:21:30;40.53;;;29.67;;
76935;SDS011;65881;52.438;16.744;2023-04-24T00:23:57;43.00;;;31.75;;
76935;SDS011;65881;52.438;16.744;2023-04-24T00:26:23;41.63;;;29.42;;
76935;SDS011;65881;52.438;16.744;2023-04-24T00:28:49;40.55;;;30.23;;
76935;SDS011;65881;52.438;16.744;2023-04-24T00:31:15;42.17;;;31.75;;
76935;SDS011;65881;52.438;16.744;2023-04-24T00:33:40;43.00;;;30.35;;
76935;SDS011;65881;52.438;16.744;2023-04-24T00:36:06;38.50;;;30.13;;
76935;SDS011;65881;52.438;16.744;2023-04-24T00:38:34;38.33;;;28.83;;
76935;SDS011;65881;52.438;16.744;2023-04-24T00:41:00;39.45;;;29.48;;
76935;SDS011;65881;52.438;16.744;2023-04-24T00:43:26;47.80;;;30.60;;
76935;SDS011;65881;52.438;16.744;2023-04-24T00:45:54;39.10;;;29.63;;
76935;SDS011;65881;52.438;16.744;2023-04-24T00:48:20;40.72;;;29.85;;
76935;SDS011;65881;52.438;16.744;2023-04-24T00:50:46;37.70;;;29.23;;
76935;SDS011;65881;52.438;16.744;2023-04-24T00:53:11;35.15;;;25.92;;
76935;SDS011;65881;52.438;16.744;2023-04-24T00:55:37;36.78;;;28.02;;
76935;SDS011;65881;52.438;16.744;2023-04-24T00:58:04;32.50;;;25.77;;
76935;SDS011;65881;52.438;16.744;2023-04-24T01:00:30;32.28;;;25.15;;
76935;SDS011;65881;52.438;16.744;2023-04-24T01:02:56;38.90;;;24.00;;
76935;SDS011;65881;52.438;16.744;2023-04-24T01:05:24;29.65;;;24.08;;
76935;SDS011;65881;52.438;16.744;2023-04-24T01:07:50;30.45;;;21.90;;
76935;SDS011;65881;52.438;16.744;2023-04-24T01:10:16;31.77;;;23.35;;
76935;SDS011;65881;52.438;16.744;2023-04-24T01:12:42;29.15;;;22.10;;
76935;SDS011;65881;52.438;16.744;2023-04-24T01:15:08;28.33;;;21.40;;
76935;SDS011;65881;52.438;16.744;2023-04-24T01:17:35;32.03;;;22.30;;
76935;SDS011;65881;52.438;16.744;2023-04-24T01:20:08;29.20;;;22.75;;
76935;SDS011;65881;52.438;16.744;2023-04-24T01:22:37;31.20;;;23.98;;
76935;SDS011;65881;52.438;16.744;2023-04-24T01:25:03;27.40;;;22.17;;
76935;SDS011;65881;52.438;16.744;2023-04-24T01:27:58;29.23;;;20.92;;
76935;SDS011;65881;52.438;16.744;2023-04-24T01:30:31;29.95;;;21.85;;
76935;SDS011;65881;52.438;16.744;2023-04-24T01:33:06;24.55;;;19.73;;
76935;SDS011;65881;52.438;16.744;2023-04-24T01:35:32;26.67;;;20.00;;
76935;SDS011;65881;52.438;16.744;2023-04-24T01:37:58;25.98;;;19.08;;
76935;SDS011;65881;52.438;16.744;2023-04-24T01:40:23;25.38;;;19.17;;
76935;SDS011;65881;52.438;16.744;2023-04-24T01:42:49;27.45;;;18.90;;
76935;SDS011;65881;52.438;16.744;2023-04-24T01:45:16;26.45;;;20.50;;
76935;SDS011;65881;52.438;16.744;2023-04-24T01:47:41;25.52;;;19.40;;
76935;SDS011;65881;52.438;16.744;2023-04-24T01:50:08;25.45;;;19.17;;
76935;SDS011;65881;52.438;16.744;2023-04-24T01:52:34;26.95;;;20.08;;
76935;SDS011;65881;52.438;16.744;2023-04-24T01:55:02;25.65;;;20.13;;
76935;SDS011;65881;52.438;16.744;2023-04-24T01:57:29;24.23;;;18.88;;
76935;SDS011;65881;52.438;16.744;2023-04-24T01:59:55;22.73;;;17.95;;
76935;SDS011;65881;52.438;16.744;2023-04-24T02:02:21;23.67;;;18.83;;
76935;SDS011;65881;52.438;16.744;2023-04-24T02:04:49;21.83;;;17.05;;
76935;SDS011;65881;52.438;16.744;2023-04-24T02:07:15;22.10;;;16.75;;
76935;SDS011;65881;52.438;16.744;2023-04-24T02:09:41;20.65;;;16.25;;
76935;SDS011;65881;52.438;16.744;2023-04-24T02:12:07;20.35;;;15.82;;
76935;SDS011;65881;52.438;16.744;2023-04-24T02:14:32;18.25;;;14.35;;
76935;SDS011;65881;52.438;16.744;2023-04-24T02:16:58;20.80;;;17.00;;
76935;SDS011;65881;52.438;16.744;2023-04-24T02:19:25;20.13;;;17.10;;
76935;SDS011;65881;52.438;16.744;2023-04-24T02:21:51;23.55;;;17.20;;
76935;SDS011;65881;52.438;16.744;2023-04-24T02:24:17;22.58;;;17.17;;
76935;SDS011;65881;52.438;16.744;2023-04-24T02:26:43;22.73;;;17.00;;
76935;SDS011;65881;52.438;16.744;2023-04-24T02:29:08;22.77;;;16.67;;
76935;SDS011;65881;52.438;16.744;2023-04-24T02:31:34;23.10;;;17.17;;
76935;SDS011;65881;52.438;16.744;2023-04-24T02:34:00;26.20;;;18.08;;
76935;SDS011;65881;52.438;16.744;2023-04-24T02:36:27;21.45;;;16.60;;
76935;SDS011;65881;52.438;16.744;2023-04-24T02:38:52;21.25;;;15.30;;
76935;SDS011;65881;52.438;16.744;2023-04-24T02:41:18;21.45;;;17.02;;
76935;SDS011;65881;52.438;16.744;2023-04-24T02:43:53;23.73;;;16.95;;
76935;SDS011;65881;52.438;16.744;2023-04-24T03:00:37;18.23;;;14.25;;
76935;SDS011;65881;52.438;16.744;2023-04-24T03:03:03;19.10;;;13.63;;
76935;SDS011;65881;52.438;16.744;2023-04-24T03:08:49;16.38;;;13.25;;
76935;SDS011;65881;52.438;16.744;2023-04-24T03:11:14;16.20;;;13.32;;
76935;SDS011;65881;52.438;16.744;2023-04-24T03:28:10;20.10;;;15.25;;
76935;SDS011;65881;52.438;16.744;2023-04-24T03:30:36;18.20;;;15.45;;
76935;SDS011;65881;52.438;16.744;2023-04-24T03:35:56;19.35;;;14.65;;
76935;SDS011;65881;52.438;16.744;2023-04-24T03:38:22;19.98;;;16.25;;
76935;SDS011;65881;52.438;16.744;2023-04-24T03:40:49;17.05;;;14.30;;
76935;SDS011;65881;52.438;16.744;2023-04-24T03:43:15;17.65;;;14.82;;
76935;SDS011;65881;52.438;16.744;2023-04-24T03:49:08;19.10;;;14.73;;
76935;SDS011;65881;52.438;16.744;2023-04-24T03:51:36;18.83;;;13.88;;
76935;SDS011;65881;52.438;16.744;2023-04-24T03:54:03;17.45;;;14.48;;
76935;SDS011;65881;52.438;16.744;2023-04-24T03:56:29;18.13;;;14.63;;
76935;SDS011;65881;52.438;16.744;2023-04-24T03:58:55;21.83;;;15.57;;
76935;SDS011;65881;52.438;16.744;2023-04-24T04:01:21;20.20;;;15.48;;
76935;SDS011;65881;52.438;16.744;2023-04-24T04:03:47;18.95;;;15.50;;
76935;SDS011;65881;52.438;16.744;2023-04-24T04:06:13;19.15;;;14.65;;
76935;SDS011;65881;52.438;16.744;2023-04-24T04:08:38;20.25;;;16.70;;
76935;SDS011;65881;52.438;16.744;2023-04-24T04:11:06;18.38;;;15.32;;
76935;SDS011;65881;52.438;16.744;2023-04-24T04:16:02;17.50;;;14.35;;
76935;SDS011;65881;52.438;16.744;2023-04-24T04:18:28;22.52;;;16.23;;
76935;SDS011;65881;52.438;16.744;2023-04-24T04:20:56;20.45;;;15.05;;
76935;SDS011;65881;52.438;16.744;2023-04-24T04:23:22;18.38;;;15.73;;
76935;SDS011;65881;52.438;16.744;2023-04-24T04:25:48;20.15;;;15.43;;
76935;SDS011;65881;52.438;16.744;2023-04-24T04:28:14;16.40;;;14.15;;
76935;SDS011;65881;52.438;16.744;2023-04-24T04:30:40;18.40;;;14.57;;
76935;SDS011;65881;52.438;16.744;2023-04-24T04:33:06;20.77;;;16.70;;
76935;SDS011;65881;52.438;16.744;2023-04-24T04:35:33;19.02;;;14.98;;
76935;SDS011;65881;52.438;16.744;2023-04-24T04:38:00;23.15;;;14.57;;
76935;SDS011;65881;52.438;16.744;2023-04-24T04:40:25;20.60;;;15.68;;
76935;SDS011;65881;52.438;16.744;2023-04-24T04:42:52;16.48;;;14.23;;
76935;SDS011;65881;52.438;16.744;2023-04-24T04:45:19;20.05;;;13.75;;
76935;SDS011;65881;52.438;16.744;2023-04-24T04:47:45;19.45;;;14.88;;
76935;SDS011;65881;52.438;16.744;2023-04-24T04:50:11;19.77;;;15.18;;
76935;SDS011;65881;52.438;16.744;2023-04-24T04:52:37;24.67;;;16.90;;
76935;SDS011;65881;52.438;16.744;2023-04-24T04:55:03;19.98;;;16.90;;
76935;SDS011;65881;52.438;16.744;2023-04-24T04:57:30;22.60;;;17.40;;
76935;SDS011;65881;52.438;16.744;2023-04-24T04:59:56;22.88;;;19.23;;
76935;SDS011;65881;52.438;16.744;2023-04-24T05:02:21;22.48;;;19.98;;
76935;SDS011;65881;52.438;16.744;2023-04-24T05:04:47;19.50;;;16.83;;
76935;SDS011;65881;52.438;16.744;2023-04-24T05:07:13;24.45;;;17.23;;
76935;SDS011;65881;52.438;16.744;2023-04-24T05:09:38;19.70;;;16.08;;
76935;SDS011;65881;52.438;16.744;2023-04-24T05:12:04;24.23;;;18.05;;
76935;SDS011;65881;52.438;16.744;2023-04-24T05:14:30;18.80;;;16.40;;
76935;SDS011;65881;52.438;16.744;2023-04-24T05:16:55;19.45;;;16.00;;
76935;SDS011;65881;52.438;16.744;2023-04-24T05:19:21;20.17;;;14.40;;
76935;SDS011;65881;52.438;16.744;2023-04-24T05:21:47;20.88;;;15.93;;
76935;SDS011;65881;52.438;16.744;2023-04-24T05:24:12;21.90;;;16.00;;
76935;SDS011;65881;52.438;16.744;2023-04-24T05:26:38;21.48;;;15.35;;
76935;SDS011;65881;52.438;16.744;2023-04-24T05:29:04;18.63;;;14.32;;
76935;SDS011;65881;52.438;16.744;2023-04-24T05:31:30;18.13;;;14.70;;
76935;SDS011;65881;52.438;16.744;2023-04-24T05:33:55;16.25;;;13.95;;
76935;SDS011;65881;52.438;16.744;2023-04-24T05:36:23;18.88;;;15.35;;
76935;SDS011;65881;52.438;16.744;2023-04-24T05:38:49;18.42;;;14.25;;
76935;SDS011;65881;52.438;16.744;2023-04-24T05:41:14;18.30;;;15.23;;
76935;SDS011;65881;52.438;16.744;2023-04-24T05:43:40;16.88;;;14.85;;
76935;SDS011;65881;52.438;16.744;2023-04-24T05:46:06;22.70;;;16.17;;
76935;SDS011;65881;52.438;16.744;2023-04-24T05:48:31;20.35;;;16.27;;
76935;SDS011;65881;52.438;16.744;2023-04-24T05:50:57;19.15;;;15.57;;
76935;SDS011;65881;52.438;16.744;2023-04-24T05:53:22;19.52;;;16.60;;
76935;SDS011;65881;52.438;16.744;2023-04-24T05:55:48;21.40;;;15.88;;
76935;SDS011;65881;52.438;16.744;2023-04-24T05:58:14;25.52;;;16.15;;
76935;SDS011;65881;52.438;16.744;2023-04-24T06:00:40;20.50;;;17.40;;
76935;SDS011;65881;52.438;16.744;2023-04-24T06:03:07;21.50;;;16.60;;
76935;SDS011;65881;52.438;16.744;2023-04-24T06:05:34;27.42;;;17.33;;
76935;SDS011;65881;52.438;16.744;2023-04-24T06:08:00;18.17;;;14.25;;
76935;SDS011;65881;52.438;16.744;2023-04-24T06:10:26;22.00;;;16.38;;
76935;SDS011;65881;52.438;16.744;2023-04-24T06:12:52;23.30;;;16.05;;
76935;SDS011;65881;52.438;16.744;2023-04-24T06:15:21;20.42;;;15.15;;
76935;SDS011;65881;52.438;16.744;2023-04-24T06:17:47;23.30;;;16.52;;
76935;SDS011;65881;52.438;16.744;2023-04-24T06:20:12;17.88;;;16.00;;
76935;SDS011;65881;52.438;16.744;2023-04-24T06:22:38;18.50;;;15.15;;
76935;SDS011;65881;52.438;16.744;2023-04-24T06:25:06;17.85;;;14.70;;
76935;SDS011;65881;52.438;16.744;2023-04-24T06:27:32;18.17;;;16.33;;
76935;SDS011;65881;52.438;16.744;2023-04-24T06:29:58;17.38;;;14.50;;
76935;SDS011;65881;52.438;16.744;2023-04-24T06:32:24;17.27;;;14.80;;
76935;SDS011;65881;52.438;16.744;2023-04-24T06:34:53;21.88;;;15.90;;
76935;SDS011;65881;52.438;16.744;2023-04-24T06:37:21;22.08;;;15.73;;
76935;SDS011;65881;52.438;16.744;2023-04-24T06:39:47;21.02;;;15.55;;
76935;SDS011;65881;52.438;16.744;2023-04-24T06:42:15;20.13;;;15.70;;
76935;SDS011;65881;52.438;16.744;2023-04-24T06:44:41;18.60;;;14.75;;
76935;SDS011;65881;52.438;16.744;2023-04-24T06:47:08;17.33;;;15.32;;
76935;SDS011;65881;52.438;16.744;2023-04-24T06:49:35;17.63;;;15.30;;
76935;SDS011;65881;52.438;16.744;2023-04-24T06:52:01;23.45;;;15.38;;
76935;SDS011;65881;52.438;16.744;2023-04-24T06:54:27;15.82;;;13.07;;
76935;SDS011;65881;52.438;16.744;2023-04-24T06:56:53;18.38;;;14.25;;
76935;SDS011;65881;52.438;16.744;2023-04-24T06:59:19;18.25;;;13.30;;
76935;SDS011;65881;52.438;16.744;2023-04-24T07:01:45;17.13;;;14.15;;
76935;SDS011;65881;52.438;16.744;2023-04-24T07:04:10;17.48;;;13.25;;
76935;SDS011;65881;52.438;16.744;2023-04-24T07:06:39;17.60;;;14.57;;
76935;SDS011;65881;52.438;16.744;2023-04-24T07:09:05;16.23;;;13.68;;
76935;SDS011;65881;52.438;16.744;2023-04-24T07:11:31;16.83;;;14.30;;
76935;SDS011;65881;52.438;16.744;2023-04-24T07:13:59;20.58;;;15.95;;
76935;SDS011;65881;52.438;16.744;2023-04-24T07:16:28;19.98;;;14.68;;
76935;SDS011;65881;52.438;16.744;2023-04-24T07:18:55;19.90;;;13.82;;
76935;SDS011;65881;52.438;16.744;2023-04-24T07:21:22;16.75;;;14.95;;
76935;SDS011;65881;52.438;16.744;2023-04-24T07:23:48;24.75;;;13.70;;
76935;SDS011;65881;52.438;16.744;2023-04-24T07:26:14;19.52;;;16.08;;
76935;SDS011;65881;52.438;16.744;2023-04-24T07:28:43;18.83;;;15.05;;
76935;SDS011;65881;52.438;16.744;2023-04-24T07:31:10;22.55;;;15.63;;
76935;SDS011;65881;52.438;16.744;2023-04-24T07:33:36;19.27;;;15.82;;
76935;SDS011;65881;52.438;16.744;2023-04-24T07:36:02;20.77;;;15.38;;
76935;SDS011;65881;52.438;16.744;2023-04-24T07:38:29;18.27;;;15.27;;
76935;SDS011;65881;52.438;16.744;2023-04-24T07:40:55;20.75;;;15.65;;
76935;SDS011;65881;52.438;16.744;2023-04-24T07:43:21;19.23;;;15.95;;
76935;SDS011;65881;52.438;16.744;2023-04-24T07:45:48;17.60;;;14.73;;
76935;SDS011;65881;52.438;16.744;2023-04-24T07:48:14;20.63;;;16.35;;
76935;SDS011;65881;52.438;16.744;2023-04-24T07:50:41;18.90;;;15.20;;
76935;SDS011;65881;52.438;16.744;2023-04-24T07:53:07;18.52;;;15.80;;
76935;SDS011;65881;52.438;16.744;2023-04-24T07:55:33;19.55;;;16.23;;
76935;SDS011;65881;52.438;16.744;2023-04-24T07:57:58;19.25;;;14.85;;
76935;SDS011;65881;52.438;16.744;2023-04-24T08:00:24;17.15;;;14.30;;
76935;SDS011;65881;52.438;16.744;2023-04-24T08:02:50;17.58;;;13.10;;
76935;SDS011;65881;52.438;16.744;2023-04-24T08:05:16;17.27;;;14.63;;
76935;SDS011;65881;52.438;16.744;2023-04-24T08:07:41;17.92;;;14.20;;
76935;SDS011;65881;52.438;16.744;2023-04-24T08:10:08;19.38;;;15.00;;
76935;SDS011;65881;52.438;16.744;2023-04-24T08:12:36;18.73;;;14.55;;
76935;SDS011;65881;52.438;16.744;2023-04-24T08:15:08;18.98;;;14.77;;
76935;SDS011;65881;52.438;16.744;2023-04-24T08:17:34;13.85;;;12.48;;
76935;SDS011;65881;52.438;16.744;2023-04-24T08:20:01;14.13;;;12.63;;
76935;SDS011;65881;52.438;16.744;2023-04-24T08:22:28;15.63;;;12.38;;
76935;SDS011;65881;52.438;16.744;2023-04-24T08:24:54;16.40;;;13.38;;
76935;SDS011;65881;52.438;16.744;2023-04-24T08:27:21;18.20;;;14.10;;
76935;SDS011;65881;52.438;16.744;2023-04-24T08:29:49;18.08;;;15.00;;
76935;SDS011;65881;52.438;16.744;2023-04-24T08:32:15;16.27;;;13.77;;
76935;SDS011;65881;52.438;16.744;2023-04-24T08:34:41;16.35;;;13.77;;
76935;SDS011;65881;52.438;16.744;2023-04-24T08:37:07;18.92;;;13.20;;
76935;SDS011;65881;52.438;16.744;2023-04-24T08:39:33;15.15;;;13.50;;
76935;SDS011;65881;52.438;16.744;2023-04-24T08:41:58;16.20;;;12.88;;
76935;SDS011;65881;52.438;16.744;2023-04-24T08:44:30;16.63;;;14.63;;
76935;SDS011;65881;52.438;16.744;2023-04-24T08:46:57;16.17;;;13.80;;
76935;SDS011;65881;52.438;16.744;2023-04-24T08:49:23;17.08;;;13.18;;
76935;SDS011;65881;52.438;16.744;2023-04-24T08:51:50;19.25;;;13.85;;
76935;SDS011;65881;52.438;16.744;2023-04-24T08:54:18;16.15;;;13.02;;
76935;SDS011;65881;52.438;16.744;2023-04-24T08:56:44;13.55;;;12.15;;
76935;SDS011;65881;52.438;16.744;2023-04-24T08:59:13;16.30;;;12.63;;
76935;SDS011;65881;52.438;16.744;2023-04-24T09:01:40;14.23;;;12.75;;
76935;SDS011;65881;52.438;16.744;2023-04-24T09:04:07;15.68;;;13.07;;
76935;SDS011;65881;52.438;16.744;2023-04-24T09:06:34;15.13;;;13.55;;
76935;SDS011;65881;52.438;16.744;2023-04-24T09:09:00;15.10;;;13.10;;
76935;SDS011;65881;52.438;16.744;2023-04-24T09:11:28;18.48;;;12.93;;
76935;SDS011;65881;52.438;16.744;2023-04-24T09:13:55;15.75;;;12.45;;
76935;SDS011;65881;52.438;16.744;2023-04-24T09:16:22;16.25;;;13.18;;
76935;SDS011;65881;52.438;16.744;2023-04-24T09:18:49;19.08;;;13.77;;
76935;SDS011;65881;52.438;16.744;2023-04-24T09:21:15;15.80;;;13.32;;
76935;SDS011;65881;52.438;16.744;2023-04-24T09:23:41;15.35;;;13.43;;
76935;SDS011;65881;52.438;16.744;2023-04-24T09:26:07;17.20;;;12.73;;
76935;SDS011;65881;52.438;16.744;2023-04-24T09:28:36;15.25;;;12.95;;
76935;SDS011;65881;52.438;16.744;2023-04-24T09:33:29;15.25;;;11.70;;
76935;SDS011;65881;52.438;16.744;2023-04-24T09:35:55;14.18;;;12.25;;
76935;SDS011;65881;52.438;16.744;2023-04-24T09:38:34;15.85;;;12.70;;
76935;SDS011;65881;52.438;16.744;2023-04-24T09:41:01;15.65;;;11.60;;
76935;SDS011;65881;52.438;16.744;2023-04-24T09:43:29;16.13;;;12.88;;
76935;SDS011;65881;52.438;16.744;2023-04-24T09:45:56;19.15;;;13.68;;
76935;SDS011;65881;52.438;16.744;2023-04-24T09:48:29;16.23;;;12.63;;
76935;SDS011;65881;52.438;16.744;2023-04-24T09:50:56;13.68;;;12.38;;
76935;SDS011;65881;52.438;16.744;2023-04-24T09:53:25;15.93;;;12.35;;
76935;SDS011;65881;52.438;16.744;2023-04-24T09:55:52;15.80;;;12.73;;
76935;SDS011;65881;52.438;16.744;2023-04-24T09:58:18;14.40;;;12.68;;
76935;SDS011;65881;52.438;16.744;2023-04-24T10:00:53;13.93;;;12.30;;
76935;SDS011;65881;52.438;16.744;2023-04-24T10:03:19;15.70;;;13.48;;
76935;SDS011;65881;52.438;16.744;2023-04-24T10:05:46;16.27;;;11.82;;
76935;SDS011;65881;52.438;16.744;2023-04-24T10:08:12;17.50;;;14.82;;
76935;SDS011;65881;52.438;16.744;2023-04-24T10:10:42;15.40;;;13.82;;
76935;SDS011;65881;52.438;16.744;2023-04-24T10:13:09;19.52;;;15.07;;
76935;SDS011;65881;52.438;16.744;2023-04-24T10:15:36;16.15;;;14.13;;
76935;SDS011;65881;52.438;16.744;2023-04-24T10:18:03;15.18;;;13.57;;
76935;SDS011;65881;52.438;16.744;2023-04-24T10:20:31;15.93;;;13.07;;
76935;SDS011;65881;52.438;16.744;2023-04-24T10:22:58;17.67;;;13.07;;
76935;SDS011;65881;52.438;16.744;2023-04-24T10:25:26;14.35;;;12.57;;
76935;SDS011;65881;52.438;16.744;2023-04-24T10:27:54;14.50;;;13.00;;
76935;SDS011;65881;52.438;16.744;2023-04-24T10:30:30;14.02;;;12.43;;
76935;SDS011;65881;52.438;16.744;2023-04-24T10:33:00;12.55;;;10.75;;
76935;SDS011;65881;52.438;16.744;2023-04-24T10:35:26;10.98;;;9.30;;
76935;SDS011;65881;52.438;16.744;2023-04-24T10:37:57;11.52;;;10.02;;
76935;SDS011;65881;52.438;16.744;2023-04-24T10:40:32;10.40;;;9.40;;
76935;SDS011;65881;52.438;16.744;2023-04-24T10:43:02;10.43;;;9.35;;
76935;SDS011;65881;52.438;16.744;2023-04-24T10:45:31;9.65;;;8.75;;
76935;SDS011;65881;52.438;16.744;2023-04-24T10:47:57;9.07;;;8.25;;
76935;SDS011;65881;52.438;16.744;2023-04-24T10:50:26;8.45;;;7.60;;
76935;SDS011;65881;52.438;16.744;2023-04-24T10:52:55;8.82;;;7.95;;
76935;SDS011;65881;52.438;16.744;2023-04-24T10:58:39;7.47;;;6.40;;
76935;SDS011;65881;52.438;16.744;2023-04-24T11:01:27;7.05;;;5.65;;
76935;SDS011;65881;52.438;16.744;2023-04-24T11:03:55;5.10;;;4.50;;
76935;SDS011;65881;52.438;16.744;2023-04-24T11:06:55;5.60;;;5.10;;
76935;SDS011;65881;52.438;16.744;2023-04-24T11:09:16;7.25;;;5.18;;
76935;SDS011;65881;52.438;16.744;2023-04-24T11:11:46;5.72;;;4.78;;
76935;SDS011;65881;52.438;16.744;2023-04-24T11:14:15;8.48;;;5.90;;
76935;SDS011;65881;52.438;16.744;2023-04-24T11:16:45;5.93;;;5.03;;
76935;SDS011;65881;52.438;16.744;2023-04-24T11:19:26;5.43;;;4.93;;
76935;SDS011;65881;52.438;16.744;2023-04-24T11:21:59;5.88;;;5.30;;
76935;SDS011;65881;52.438;16.744;2023-04-24T11:24:29;5.97;;;4.00;;
76935;SDS011;65881;52.438;16.744;2023-04-24T11:37:40;4.20;;;3.80;;
76935;SDS011;65881;52.438;16.744;2023-04-24T11:40:08;4.85;;;3.90;;
76935;SDS011;65881;52.438;16.744;2023-04-24T11:42:38;4.25;;;3.75;;
76935;SDS011;65881;52.438;16.744;2023-04-24T11:45:13;5.15;;;3.80;;
76935;SDS011;65881;52.438;16.744;2023-04-24T11:47:43;4.38;;;3.85;;
76935;SDS011;65881;52.438;16.744;2023-04-24T11:50:20;4.50;;;3.55;;
76935;SDS011;65881;52.438;16.744;2023-04-24T11:52:50;5.95;;;3.83;;
76935;SDS011;65881;52.438;16.744;2023-04-24T11:57:43;9.10;;;4.65;;
76935;SDS011;65881;52.438;16.744;2023-04-24T12:00:15;6.70;;;4.35;;
76935;SDS011;65881;52.438;16.744;2023-04-24T12:02:43;5.10;;;4.57;;
76935;SDS011;65881;52.438;16.744;2023-04-24T12:05:12;4.85;;;4.30;;
76935;SDS011;65881;52.438;16.744;2023-04-24T12:07:45;4.20;;;3.80;;
76935;SDS011;65881;52.438;16.744;2023-04-24T12:10:10;5.55;;;4.28;;
76935;SDS011;65881;52.438;16.744;2023-04-24T12:12:39;4.57;;;3.83;;
76935;SDS011;65881;52.438;16.744;2023-04-24T12:15:08;6.53;;;5.93;;
76935;SDS011;65881;52.438;16.744;2023-04-24T12:17:35;4.60;;;3.92;;
76935;SDS011;65881;52.438;16.744;2023-04-24T12:20:07;4.75;;;3.28;;
76935;SDS011;65881;52.438;16.744;2023-04-24T12:25:22;3.65;;;3.17;;
76935;SDS011;65881;52.438;16.744;2023-04-24T12:28:22;4.05;;;3.65;;
76935;SDS011;65881;52.438;16.744;2023-04-24T12:30:43;5.28;;;3.28;;
76935;SDS011;65881;52.438;16.744;2023-04-24T12:33:16;6.15;;;3.70;;
76935;SDS011;65881;52.438;16.744;2023-04-24T12:35:46;3.72;;;3.42;;
76935;SDS011;65881;52.438;16.744;2023-04-24T12:38:16;3.92;;;3.53;;
76935;SDS011;65881;52.438;16.744;2023-04-24T12:40:46;4.40;;;3.53;;
76935;SDS011;65881;52.438;16.744;2023-04-24T12:43:16;3.88;;;3.58;;
76935;SDS011;65881;52.438;16.744;2023-04-24T12:45:46;5.70;;;3.17;;
76935;SDS011;65881;52.438;16.744;2023-04-24T12:48:12;4.93;;;3.25;;
76935;SDS011;65881;52.438;16.744;2023-04-24T12:50:44;4.88;;;3.45;;
76935;SDS011;65881;52.438;16.744;2023-04-24T12:53:09;3.28;;;2.97;;
76935;SDS011;65881;52.438;16.744;2023-04-24T12:55:36;3.33;;;2.92;;
76935;SDS011;65881;52.438;16.744;2023-04-24T12:58:02;4.25;;;2.75;;
76935;SDS011;65881;52.438;16.744;2023-04-24T13:00:28;3.53;;;3.03;;
76935;SDS011;65881;52.438;16.744;2023-04-24T13:02:54;4.30;;;2.92;;
76935;SDS011;65881;52.438;16.744;2023-04-24T13:05:19;3.15;;;2.72;;
76935;SDS011;65881;52.438;16.744;2023-04-24T13:07:45;4.45;;;3.10;;
76935;SDS011;65881;52.438;16.744;2023-04-24T13:10:11;3.63;;;2.90;;
76935;SDS011;65881;52.438;16.744;2023-04-24T13:12:38;2.88;;;2.63;;
76935;SDS011;65881;52.438;16.744;2023-04-24T13:15:04;7.90;;;3.35;;
76935;SDS011;65881;52.438;16.744;2023-04-24T13:17:30;4.05;;;3.25;;
76935;SDS011;65881;52.438;16.744;2023-04-24T13:19:56;5.25;;;3.85;;
76935;SDS011;65881;52.438;16.744;2023-04-24T13:22:23;3.72;;;3.10;;
76935;SDS011;65881;52.438;16.744;2023-04-24T13:24:48;5.40;;;2.90;;
76935;SDS011;65881;52.438;16.744;2023-04-24T13:27:14;4.18;;;2.90;;
76935;SDS011;65881;52.438;16.744;2023-04-24T13:29:41;4.28;;;3.50;;
76935;SDS011;65881;52.438;16.744;2023-04-24T13:32:07;4.70;;;2.78;;
76935;SDS011;65881;52.438;16.744;2023-04-24T13:34:33;3.72;;;2.17;;
76935;SDS011;65881;52.438;16.744;2023-04-24T13:37:03;4.30;;;2.20;;
76935;SDS011;65881;52.438;16.744;2023-04-24T13:39:29;2.95;;;2.03;;
76935;SDS011;65881;52.438;16.744;2023-04-24T13:41:55;2.22;;;1.80;;
76935;SDS011;65881;52.438;16.744;2023-04-24T13:44:23;13.57;;;2.28;;
76935;SDS011;65881;52.438;16.744;2023-04-24T13:46:55;2.97;;;2.00;;
76935;SDS011;65881;52.438;16.744;2023-04-24T13:49:23;2.83;;;1.80;;
76935;SDS011;65881;52.438;16.744;2023-04-24T13:51:50;2.50;;;1.98;;
76935;SDS011;65881;52.438;16.744;2023-04-24T13:54:27;4.13;;;1.70;;
76935;SDS011;65881;52.438;16.744;2023-04-24T13:56:52;2.45;;;1.95;;
76935;SDS011;65881;52.438;16.744;2023-04-24T13:59:42;2.15;;;1.73;;
76935;SDS011;65881;52.438;16.744;2023-04-24T14:02:29;1.65;;;1.50;;
76935;SDS011;65881;52.438;16.744;2023-04-24T14:04:54;2.83;;;1.77;;
76935;SDS011;65881;52.438;16.744;2023-04-24T14:07:20;3.97;;;1.77;;
76935;SDS011;65881;52.438;16.744;2023-04-24T14:12:28;4.95;;;2.20;;
76935;SDS011;65881;52.438;16.744;2023-04-24T14:14:54;3.22;;;1.83;;
76935;SDS011;65881;52.438;16.744;2023-04-24T14:17:32;3.55;;;1.95;;
76935;SDS011;65881;52.438;16.744;2023-04-24T14:19:58;2.47;;;1.90;;
76935;SDS011;65881;52.438;16.744;2023-04-24T14:22:43;5.88;;;1.90;;
76935;SDS011;65881;52.438;16.744;2023-04-24T14:25:09;2.88;;;2.33;;
76935;SDS011;65881;52.438;16.744;2023-04-24T14:27:41;2.70;;;2.10;;
76935;SDS011;65881;52.438;16.744;2023-04-24T14:30:19;2.47;;;2.00;;
76935;SDS011;65881;52.438;16.744;2023-04-24T14:33:03;4.90;;;2.10;;
76935;SDS011;65881;52.438;16.744;2023-04-24T14:35:29;2.30;;;1.85;;
76935;SDS011;65881;52.438;16.744;2023-04-24T14:38:03;5.45;;;2.45;;
76935;SDS011;65881;52.438;16.744;2023-04-24T14:40:34;3.85;;;2.03;;
76935;SDS011;65881;52.438;16.744;2023-04-24T14:43:11;3.67;;;2.03;;
76935;SDS011;65881;52.438;16.744;2023-04-24T14:45:37;2.97;;;2.22;;
76935;SDS011;65881;52.438;16.744;2023-04-24T14:48:10;3.33;;;1.98;;
76935;SDS011;65881;52.438;16.744;2023-04-24T14:50:36;3.10;;;2.28;;
76935;SDS011;65881;52.438;16.744;2023-04-24T14:56:17;3.60;;;2.03;;
76935;SDS011;65881;52.438;16.744;2023-04-24T14:58:43;2.30;;;2.08;;
76935;SDS011;65881;52.438;16.744;2023-04-24T15:03:56;3.17;;;2.53;;
76935;SDS011;65881;52.438;16.744;2023-04-24T15:06:31;3.45;;;2.53;;
76935;SDS011;65881;52.438;16.744;2023-04-24T15:09:07;5.15;;;3.35;;
76935;SDS011;65881;52.438;16.744;2023-04-24T15:11:33;5.63;;;2.95;;
76935;SDS011;65881;52.438;16.744;2023-04-24T15:13:59;3.78;;;2.70;;
76935;SDS011;65881;52.438;16.744;2023-04-24T15:19:31;2.85;;;2.47;;
76935;SDS011;65881;52.438;16.744;2023-04-24T15:22:00;4.55;;;2.30;;
76935;SDS011;65881;52.438;16.744;2023-04-24T15:24:32;2.88;;;2.40;;
76935;SDS011;65881;52.438;16.744;2023-04-24T15:27:00;3.25;;;2.70;;
76935;SDS011;65881;52.438;16.744;2023-04-24T15:29:26;4.78;;;3.10;;
76935;SDS011;65881;52.438;16.744;2023-04-24T15:32:06;3.03;;;2.60;;
76935;SDS011;65881;52.438;16.744;2023-04-24T15:37:22;4.15;;;2.83;;